メインページ
METAR-TAF:

METAR-TAF

空港 :

カルガリー, アルバータ州, カナダ

カルガリー国際空港

緯度: 51-07N, 経度: 114-01W, 海抜: 1077m

現時点の気象観測

当レポートは38分前の14:00(UTC)に作成
南西の風 7kt
気温 -5°C
湿度 63%
気圧 1009 hPa
視程: 24.1km
高度6000ftの雲はほとんどない
高度15000ftの雲はほとんどない
高度18000ftの千切れ雲あり
高度22000ftの千切れ雲あり

METAR: CYYC 211400Z 22007KT 15SM FEW060 FEW150 BKN180 BKN220 M05/M11 A2981 RMK SC1AC1AS5CI1 SC TR SLP147

時間: 07:38 (14:38 UTC)

予報

当レポートは2時間58分前の11:40(UTC)に作成
予報は21日の 12時(UTC)から 22日の 12時(UTC)まで有効
南/南西の風 6kt
視程: 10km
高度5000ftの雲はほとんどない
高度20000ftの雲は散在している
21日の 20時(UTC)から 21日の 22時(UTC)まで徐々に
の風 10kt

TAF: CYYC 211140Z 2112/2212 20006KT P6SM FEW050 SCT200 BECMG 2120/2122 19010KT RMK NXT FCST BY 211500Z

4,000以上の空港の気象観測と天気予報(METAR報とTAF報)

利用可能な観測所は地図上に黄色い丸と赤い丸で示す。

丸の上にカーソルを重ねると観測所名を参照できる。

次にクリックすると気象観測と天気予報を参照できる。

マップの切り替え:黒色「×」印の緑ボタンをクリックして拡大、「-」印の緑ボタンをクリックして縮小、緑色の三角印をクリックして隣りの地図に切り替え


METAR-TAF: